sensor_id;sensor_type;location;lat;lon;timestamp;P1;durP1;ratioP1;P2;durP2;ratioP2
75737;SDS011;64356;45.638;13.764;2023-02-05T00:01:17;3.20;;;2.05;;
75737;SDS011;64356;45.638;13.764;2023-02-05T00:03:43;2.20;;;2.00;;
75737;SDS011;64356;45.638;13.764;2023-02-05T00:06:08;2.20;;;1.92;;
75737;SDS011;64356;45.638;13.764;2023-02-05T00:08:34;3.15;;;2.35;;
75737;SDS011;64356;45.638;13.764;2023-02-05T00:11:00;2.30;;;2.10;;
75737;SDS011;64356;45.638;13.764;2023-02-05T00:13:33;2.33;;;1.98;;
75737;SDS011;64356;45.638;13.764;2023-02-05T00:16:00;2.30;;;2.10;;
75737;SDS011;64356;45.638;13.764;2023-02-05T00:18:30;2.13;;;1.92;;
75737;SDS011;64356;45.638;13.764;2023-02-05T00:20:56;2.35;;;2.15;;
75737;SDS011;64356;45.638;13.764;2023-02-05T00:23:22;2.70;;;2.40;;
75737;SDS011;64356;45.638;13.764;2023-02-05T00:25:47;2.00;;;1.80;;
75737;SDS011;64356;45.638;13.764;2023-02-05T00:28:13;2.20;;;2.00;;
75737;SDS011;64356;45.638;13.764;2023-02-05T00:30:39;1.67;;;1.58;;
75737;SDS011;64356;45.638;13.764;2023-02-05T00:33:05;1.95;;;1.75;;
75737;SDS011;64356;45.638;13.764;2023-02-05T00:35:31;2.30;;;2.00;;
75737;SDS011;64356;45.638;13.764;2023-02-05T00:37:56;2.60;;;2.28;;
75737;SDS011;64356;45.638;13.764;2023-02-05T00:40:22;2.55;;;2.20;;
75737;SDS011;64356;45.638;13.764;2023-02-05T00:42:48;1.85;;;1.75;;
75737;SDS011;64356;45.638;13.764;2023-02-05T00:45:13;2.17;;;1.98;;
75737;SDS011;64356;45.638;13.764;2023-02-05T00:47:39;2.95;;;1.90;;
75737;SDS011;64356;45.638;13.764;2023-02-05T00:50:05;2.90;;;2.00;;
75737;SDS011;64356;45.638;13.764;2023-02-05T00:52:31;2.55;;;2.30;;
75737;SDS011;64356;45.638;13.764;2023-02-05T00:54:56;2.25;;;2.05;;
75737;SDS011;64356;45.638;13.764;2023-02-05T00:57:22;2.65;;;2.30;;
75737;SDS011;64356;45.638;13.764;2023-02-05T00:59:49;4.43;;;2.10;;
75737;SDS011;64356;45.638;13.764;2023-02-05T01:02:21;2.30;;;2.10;;
75737;SDS011;64356;45.638;13.764;2023-02-05T01:04:51;2.20;;;2.00;;
75737;SDS011;64356;45.638;13.764;2023-02-05T01:07:17;2.38;;;1.90;;
75737;SDS011;64356;45.638;13.764;2023-02-05T01:09:44;2.85;;;2.08;;
75737;SDS011;64356;45.638;13.764;2023-02-05T01:12:10;2.13;;;1.92;;
75737;SDS011;64356;45.638;13.764;2023-02-05T01:14:38;2.10;;;1.90;;
75737;SDS011;64356;45.638;13.764;2023-02-05T01:17:04;2.00;;;1.90;;
75737;SDS011;64356;45.638;13.764;2023-02-05T01:19:31;2.42;;;1.98;;
75737;SDS011;64356;45.638;13.764;2023-02-05T01:21:58;2.28;;;2.00;;
75737;SDS011;64356;45.638;13.764;2023-02-05T01:24:24;2.30;;;2.08;;
75737;SDS011;64356;45.638;13.764;2023-02-05T01:26:49;2.10;;;1.90;;
75737;SDS011;64356;45.638;13.764;2023-02-05T01:29:17;2.78;;;2.00;;
75737;SDS011;64356;45.638;13.764;2023-02-05T01:31:43;2.00;;;1.80;;
75737;SDS011;64356;45.638;13.764;2023-02-05T01:34:09;3.28;;;2.42;;
75737;SDS011;64356;45.638;13.764;2023-02-05T01:36:34;2.15;;;1.95;;
75737;SDS011;64356;45.638;13.764;2023-02-05T01:39:00;4.00;;;2.25;;
75737;SDS011;64356;45.638;13.764;2023-02-05T01:41:26;2.75;;;2.20;;
75737;SDS011;64356;45.638;13.764;2023-02-05T01:44:04;1.80;;;1.70;;
75737;SDS011;64356;45.638;13.764;2023-02-05T01:46:33;2.17;;;1.98;;
75737;SDS011;64356;45.638;13.764;2023-02-05T01:49:00;3.17;;;2.28;;
75737;SDS011;64356;45.638;13.764;2023-02-05T01:51:28;2.42;;;2.03;;
75737;SDS011;64356;45.638;13.764;2023-02-05T01:53:55;2.13;;;2.00;;
75737;SDS011;64356;45.638;13.764;2023-02-05T01:56:29;1.98;;;1.77;;
75737;SDS011;64356;45.638;13.764;2023-02-05T01:59:05;2.08;;;1.88;;
75737;SDS011;64356;45.638;13.764;2023-02-05T02:01:43;2.70;;;1.95;;
75737;SDS011;64356;45.638;13.764;2023-02-05T02:04:10;2.15;;;2.03;;
75737;SDS011;64356;45.638;13.764;2023-02-05T02:06:39;2.13;;;1.92;;
75737;SDS011;64356;45.638;13.764;2023-02-05T02:09:05;2.50;;;2.30;;
75737;SDS011;64356;45.638;13.764;2023-02-05T02:11:33;3.25;;;2.03;;
75737;SDS011;64356;45.638;13.764;2023-02-05T02:14:02;2.08;;;1.88;;
75737;SDS011;64356;45.638;13.764;2023-02-05T02:16:31;2.20;;;2.00;;
75737;SDS011;64356;45.638;13.764;2023-02-05T02:18:59;2.00;;;1.80;;
75737;SDS011;64356;45.638;13.764;2023-02-05T02:29:41;2.38;;;2.17;;
75737;SDS011;64356;45.638;13.764;2023-02-05T02:40:24;2.58;;;2.00;;
75737;SDS011;64356;45.638;13.764;2023-02-05T02:45:53;2.00;;;1.80;;
75737;SDS011;64356;45.638;13.764;2023-02-05T02:48:25;2.05;;;1.92;;
75737;SDS011;64356;45.638;13.764;2023-02-05T02:50:53;2.17;;;1.90;;
75737;SDS011;64356;45.638;13.764;2023-02-05T02:53:26;2.10;;;1.90;;
75737;SDS011;64356;45.638;13.764;2023-02-05T02:55:57;2.08;;;1.88;;
75737;SDS011;64356;45.638;13.764;2023-02-05T03:00:59;2.08;;;1.88;;
75737;SDS011;64356;45.638;13.764;2023-02-05T03:03:27;1.70;;;1.60;;
75737;SDS011;64356;45.638;13.764;2023-02-05T03:05:56;1.63;;;1.52;;
75737;SDS011;64356;45.638;13.764;2023-02-05T03:08:29;2.67;;;2.17;;
75737;SDS011;64356;45.638;13.764;2023-02-05T03:11:05;1.77;;;1.67;;
75737;SDS011;64356;45.638;13.764;2023-02-05T03:13:38;1.88;;;1.77;;
75737;SDS011;64356;45.638;13.764;2023-02-05T03:16:05;1.83;;;1.65;;
75737;SDS011;64356;45.638;13.764;2023-02-05T03:18:31;2.42;;;2.00;;
75737;SDS011;64356;45.638;13.764;2023-02-05T03:20:59;2.58;;;1.98;;
75737;SDS011;64356;45.638;13.764;2023-02-05T03:23:28;1.80;;;1.70;;
75737;SDS011;64356;45.638;13.764;2023-02-05T03:25:54;2.00;;;1.70;;
75737;SDS011;64356;45.638;13.764;2023-02-05T03:28:20;2.25;;;2.05;;
75737;SDS011;64356;45.638;13.764;2023-02-05T03:36:14;2.67;;;2.20;;
75737;SDS011;64356;45.638;13.764;2023-02-05T03:39:11;1.60;;;1.50;;
75737;SDS011;64356;45.638;13.764;2023-02-05T03:53:08;1.80;;;1.70;;
75737;SDS011;64356;45.638;13.764;2023-02-05T03:55:51;2.28;;;2.08;;
75737;SDS011;64356;45.638;13.764;2023-02-05T03:58:26;2.03;;;1.83;;
75737;SDS011;64356;45.638;13.764;2023-02-05T04:00:57;2.13;;;1.92;;
75737;SDS011;64356;45.638;13.764;2023-02-05T04:03:24;2.10;;;2.00;;
75737;SDS011;64356;45.638;13.764;2023-02-05T04:05:50;1.88;;;1.77;;
75737;SDS011;64356;45.638;13.764;2023-02-05T04:08:16;2.05;;;1.85;;
75737;SDS011;64356;45.638;13.764;2023-02-05T04:10:41;1.73;;;1.63;;
75737;SDS011;64356;45.638;13.764;2023-02-05T04:13:07;2.13;;;2.00;;
75737;SDS011;64356;45.638;13.764;2023-02-05T04:15:33;1.70;;;1.60;;
75737;SDS011;64356;45.638;13.764;2023-02-05T04:17:58;1.83;;;1.70;;
75737;SDS011;64356;45.638;13.764;2023-02-05T04:20:24;1.90;;;1.77;;
75737;SDS011;64356;45.638;13.764;2023-02-05T04:22:50;1.80;;;1.70;;
75737;SDS011;64356;45.638;13.764;2023-02-05T04:25:15;1.98;;;1.75;;
75737;SDS011;64356;45.638;13.764;2023-02-05T04:27:41;1.85;;;1.73;;
75737;SDS011;64356;45.638;13.764;2023-02-05T04:30:07;1.77;;;1.60;;
75737;SDS011;64356;45.638;13.764;2023-02-05T04:32:33;2.00;;;1.65;;
75737;SDS011;64356;45.638;13.764;2023-02-05T04:34:59;2.30;;;1.40;;
75737;SDS011;64356;45.638;13.764;2023-02-05T04:37:24;2.10;;;1.95;;
75737;SDS011;64356;45.638;13.764;2023-02-05T04:39:50;1.50;;;1.40;;
75737;SDS011;64356;45.638;13.764;2023-02-05T04:42:16;1.98;;;1.80;;
75737;SDS011;64356;45.638;13.764;2023-02-05T04:44:41;1.83;;;1.65;;
75737;SDS011;64356;45.638;13.764;2023-02-05T04:47:07;2.25;;;2.05;;
75737;SDS011;64356;45.638;13.764;2023-02-05T04:49:33;1.60;;;1.50;;
75737;SDS011;64356;45.638;13.764;2023-02-05T04:51:59;1.70;;;1.60;;
75737;SDS011;64356;45.638;13.764;2023-02-05T04:54:24;1.65;;;1.55;;
75737;SDS011;64356;45.638;13.764;2023-02-05T04:56:52;1.95;;;1.85;;
75737;SDS011;64356;45.638;13.764;2023-02-05T04:59:18;1.88;;;1.52;;
75737;SDS011;64356;45.638;13.764;2023-02-05T05:01:43;1.63;;;1.52;;
75737;SDS011;64356;45.638;13.764;2023-02-05T05:04:09;2.45;;;1.70;;
75737;SDS011;64356;45.638;13.764;2023-02-05T05:06:35;2.28;;;1.80;;
75737;SDS011;64356;45.638;13.764;2023-02-05T05:09:00;1.77;;;1.67;;
75737;SDS011;64356;45.638;13.764;2023-02-05T05:11:26;1.90;;;1.80;;
75737;SDS011;64356;45.638;13.764;2023-02-05T05:13:52;1.95;;;1.80;;
75737;SDS011;64356;45.638;13.764;2023-02-05T05:16:17;1.80;;;1.70;;
75737;SDS011;64356;45.638;13.764;2023-02-05T05:18:43;1.40;;;1.30;;
75737;SDS011;64356;45.638;13.764;2023-02-05T05:21:09;1.55;;;1.45;;
75737;SDS011;64356;45.638;13.764;2023-02-05T05:23:36;1.65;;;1.55;;
75737;SDS011;64356;45.638;13.764;2023-02-05T05:26:06;2.38;;;1.70;;
75737;SDS011;64356;45.638;13.764;2023-02-05T05:28:33;1.67;;;1.58;;
75737;SDS011;64356;45.638;13.764;2023-02-05T05:31:04;1.60;;;1.50;;
75737;SDS011;64356;45.638;13.764;2023-02-05T05:33:32;1.67;;;1.58;;
75737;SDS011;64356;45.638;13.764;2023-02-05T05:35:58;1.95;;;1.80;;
75737;SDS011;64356;45.638;13.764;2023-02-05T05:38:23;2.08;;;1.75;;
75737;SDS011;64356;45.638;13.764;2023-02-05T05:40:49;1.95;;;1.75;;
75737;SDS011;64356;45.638;13.764;2023-02-05T05:43:34;2.10;;;1.90;;
75737;SDS011;64356;45.638;13.764;2023-02-05T05:46:12;1.48;;;1.38;;
75737;SDS011;64356;45.638;13.764;2023-02-05T05:48:49;1.70;;;1.60;;
75737;SDS011;64356;45.638;13.764;2023-02-05T05:51:20;1.80;;;1.65;;
75737;SDS011;64356;45.638;13.764;2023-02-05T05:53:46;1.55;;;1.40;;
75737;SDS011;64356;45.638;13.764;2023-02-05T05:56:12;2.88;;;1.80;;
75737;SDS011;64356;45.638;13.764;2023-02-05T05:58:38;2.08;;;1.70;;
75737;SDS011;64356;45.638;13.764;2023-02-05T06:01:04;1.90;;;1.63;;
75737;SDS011;64356;45.638;13.764;2023-02-05T06:03:31;1.70;;;1.60;;
75737;SDS011;64356;45.638;13.764;2023-02-05T06:05:59;1.60;;;1.50;;
75737;SDS011;64356;45.638;13.764;2023-02-05T06:08:26;2.05;;;1.88;;
75737;SDS011;64356;45.638;13.764;2023-02-05T06:10:52;1.85;;;1.63;;
75737;SDS011;64356;45.638;13.764;2023-02-05T06:13:18;1.60;;;1.50;;
75737;SDS011;64356;45.638;13.764;2023-02-05T06:15:43;1.75;;;1.63;;
75737;SDS011;64356;45.638;13.764;2023-02-05T06:18:09;1.65;;;1.55;;
75737;SDS011;64356;45.638;13.764;2023-02-05T06:20:35;1.60;;;1.50;;
75737;SDS011;64356;45.638;13.764;2023-02-05T06:23:00;1.92;;;1.50;;
75737;SDS011;64356;45.638;13.764;2023-02-05T06:25:26;1.95;;;1.80;;
75737;SDS011;64356;45.638;13.764;2023-02-05T06:27:52;2.13;;;1.80;;
75737;SDS011;64356;45.638;13.764;2023-02-05T06:30:17;1.75;;;1.65;;
75737;SDS011;64356;45.638;13.764;2023-02-05T06:32:43;2.35;;;1.50;;
75737;SDS011;64356;45.638;13.764;2023-02-05T06:35:09;2.10;;;1.40;;
75737;SDS011;64356;45.638;13.764;2023-02-05T06:37:34;2.30;;;1.92;;
75737;SDS011;64356;45.638;13.764;2023-02-05T06:40:00;1.90;;;1.48;;
75737;SDS011;64356;45.638;13.764;2023-02-05T06:42:26;4.45;;;1.40;;
75737;SDS011;64356;45.638;13.764;2023-02-05T06:44:52;1.70;;;1.60;;
75737;SDS011;64356;45.638;13.764;2023-02-05T06:47:18;1.42;;;1.33;;
75737;SDS011;64356;45.638;13.764;2023-02-05T06:49:43;1.73;;;1.42;;
75737;SDS011;64356;45.638;13.764;2023-02-05T06:52:09;2.33;;;1.40;;
75737;SDS011;64356;45.638;13.764;2023-02-05T06:54:35;3.38;;;1.88;;
75737;SDS011;64356;45.638;13.764;2023-02-05T06:57:02;1.65;;;1.42;;
75737;SDS011;64356;45.638;13.764;2023-02-05T06:59:28;1.65;;;1.52;;
75737;SDS011;64356;45.638;13.764;2023-02-05T07:01:54;1.67;;;1.58;;
75737;SDS011;64356;45.638;13.764;2023-02-05T07:04:20;1.83;;;1.63;;
75737;SDS011;64356;45.638;13.764;2023-02-05T07:06:46;1.80;;;1.50;;
75737;SDS011;64356;45.638;13.764;2023-02-05T07:09:11;1.70;;;1.60;;
75737;SDS011;64356;45.638;13.764;2023-02-05T07:11:37;1.83;;;1.50;;
75737;SDS011;64356;45.638;13.764;2023-02-05T07:14:03;1.55;;;1.45;;
75737;SDS011;64356;45.638;13.764;2023-02-05T07:16:29;1.50;;;1.40;;
75737;SDS011;64356;45.638;13.764;2023-02-05T07:18:56;1.65;;;1.55;;
75737;SDS011;64356;45.638;13.764;2023-02-05T07:21:22;1.40;;;1.30;;
75737;SDS011;64356;45.638;13.764;2023-02-05T07:23:48;1.40;;;1.30;;
75737;SDS011;64356;45.638;13.764;2023-02-05T07:26:14;1.73;;;1.60;;
75737;SDS011;64356;45.638;13.764;2023-02-05T07:28:41;1.73;;;1.58;;
75737;SDS011;64356;45.638;13.764;2023-02-05T07:31:09;1.60;;;1.50;;
75737;SDS011;64356;45.638;13.764;2023-02-05T07:33:39;2.15;;;1.95;;
75737;SDS011;64356;45.638;13.764;2023-02-05T07:36:06;1.38;;;1.27;;
75737;SDS011;64356;45.638;13.764;2023-02-05T07:38:34;1.60;;;1.50;;
75737;SDS011;64356;45.638;13.764;2023-02-05T07:41:02;3.08;;;2.22;;
75737;SDS011;64356;45.638;13.764;2023-02-05T07:43:29;1.33;;;1.23;;
75737;SDS011;64356;45.638;13.764;2023-02-05T07:45:55;1.60;;;1.50;;
75737;SDS011;64356;45.638;13.764;2023-02-05T07:48:25;1.92;;;1.75;;
75737;SDS011;64356;45.638;13.764;2023-02-05T07:50:51;1.27;;;1.20;;
75737;SDS011;64356;45.638;13.764;2023-02-05T07:53:17;1.80;;;1.67;;
75737;SDS011;64356;45.638;13.764;2023-02-05T07:55:43;2.45;;;1.50;;
75737;SDS011;64356;45.638;13.764;2023-02-05T07:58:09;1.85;;;1.75;;
75737;SDS011;64356;45.638;13.764;2023-02-05T08:00:34;1.65;;;1.55;;
75737;SDS011;64356;45.638;13.764;2023-02-05T08:03:00;1.60;;;1.50;;
75737;SDS011;64356;45.638;13.764;2023-02-05T08:05:26;1.67;;;1.58;;
75737;SDS011;64356;45.638;13.764;2023-02-05T08:07:52;1.85;;;1.73;;
75737;SDS011;64356;45.638;13.764;2023-02-05T08:10:18;1.48;;;1.38;;
75737;SDS011;64356;45.638;13.764;2023-02-05T08:12:44;1.70;;;1.60;;
75737;SDS011;64356;45.638;13.764;2023-02-05T08:15:11;1.50;;;1.15;;
75737;SDS011;64356;45.638;13.764;2023-02-05T08:17:36;4.88;;;1.55;;
75737;SDS011;64356;45.638;13.764;2023-02-05T08:20:03;1.63;;;1.50;;
75737;SDS011;64356;45.638;13.764;2023-02-05T08:22:34;1.52;;;1.42;;
75737;SDS011;64356;45.638;13.764;2023-02-05T08:25:04;3.70;;;1.33;;
75737;SDS011;64356;45.638;13.764;2023-02-05T08:27:32;1.25;;;1.15;;
75737;SDS011;64356;45.638;13.764;2023-02-05T08:29:59;1.40;;;1.30;;
75737;SDS011;64356;45.638;13.764;2023-02-05T08:32:24;1.55;;;1.45;;
75737;SDS011;64356;45.638;13.764;2023-02-05T08:34:50;1.48;;;1.38;;
75737;SDS011;64356;45.638;13.764;2023-02-05T08:37:16;1.98;;;1.83;;
75737;SDS011;64356;45.638;13.764;2023-02-05T08:39:41;1.30;;;1.20;;
75737;SDS011;64356;45.638;13.764;2023-02-05T08:42:07;1.60;;;1.50;;
75737;SDS011;64356;45.638;13.764;2023-02-05T08:44:33;2.25;;;1.95;;
75737;SDS011;64356;45.638;13.764;2023-02-05T08:46:58;2.05;;;1.63;;
75737;SDS011;64356;45.638;13.764;2023-02-05T08:49:24;1.92;;;1.60;;
75737;SDS011;64356;45.638;13.764;2023-02-05T08:51:50;1.30;;;1.20;;
75737;SDS011;64356;45.638;13.764;2023-02-05T08:54:16;1.40;;;1.30;;
75737;SDS011;64356;45.638;13.764;2023-02-05T08:56:42;1.60;;;1.50;;
75737;SDS011;64356;45.638;13.764;2023-02-05T08:59:09;1.67;;;1.58;;
75737;SDS011;64356;45.638;13.764;2023-02-05T09:01:36;1.60;;;1.50;;
75737;SDS011;64356;45.638;13.764;2023-02-05T09:04:05;1.85;;;1.70;;
75737;SDS011;64356;45.638;13.764;2023-02-05T09:06:31;1.45;;;1.35;;
75737;SDS011;64356;45.638;13.764;2023-02-05T09:08:57;1.67;;;1.58;;
75737;SDS011;64356;45.638;13.764;2023-02-05T09:11:22;1.50;;;1.40;;
75737;SDS011;64356;45.638;13.764;2023-02-05T09:13:50;1.70;;;1.60;;
75737;SDS011;64356;45.638;13.764;2023-02-05T09:16:17;2.05;;;1.60;;
75737;SDS011;64356;45.638;13.764;2023-02-05T09:18:42;1.40;;;1.30;;
75737;SDS011;64356;45.638;13.764;2023-02-05T09:21:08;1.40;;;1.15;;
75737;SDS011;64356;45.638;13.764;2023-02-05T09:23:35;1.70;;;1.60;;
75737;SDS011;64356;45.638;13.764;2023-02-05T09:26:01;1.73;;;1.63;;
75737;SDS011;64356;45.638;13.764;2023-02-05T09:28:28;1.80;;;1.40;;
75737;SDS011;64356;45.638;13.764;2023-02-05T09:30:54;1.58;;;1.48;;
75737;SDS011;64356;45.638;13.764;2023-02-05T09:33:19;1.63;;;1.50;;
75737;SDS011;64356;45.638;13.764;2023-02-05T09:35:45;1.55;;;1.45;;
75737;SDS011;64356;45.638;13.764;2023-02-05T09:38:14;2.00;;;1.75;;
75737;SDS011;64356;45.638;13.764;2023-02-05T09:40:43;1.63;;;1.52;;
75737;SDS011;64356;45.638;13.764;2023-02-05T09:49:02;1.35;;;1.25;;
75737;SDS011;64356;45.638;13.764;2023-02-05T09:51:39;1.40;;;1.30;;
75737;SDS011;64356;45.638;13.764;2023-02-05T09:54:30;1.42;;;1.33;;
75737;SDS011;64356;45.638;13.764;2023-02-05T09:57:03;1.50;;;1.40;;
75737;SDS011;64356;45.638;13.764;2023-02-05T09:59:40;1.92;;;1.65;;
75737;SDS011;64356;45.638;13.764;2023-02-05T10:02:23;1.60;;;1.50;;
75737;SDS011;64356;45.638;13.764;2023-02-05T10:04:51;1.60;;;1.50;;
75737;SDS011;64356;45.638;13.764;2023-02-05T10:07:28;1.67;;;1.58;;
75737;SDS011;64356;45.638;13.764;2023-02-05T10:19:07;1.67;;;1.58;;
75737;SDS011;64356;45.638;13.764;2023-02-05T10:28:14;1.63;;;1.52;;
75737;SDS011;64356;45.638;13.764;2023-02-05T10:38:23;1.95;;;1.52;;
75737;SDS011;64356;45.638;13.764;2023-02-05T10:40:50;1.25;;;1.15;;
75737;SDS011;64356;45.638;13.764;2023-02-05T10:43:24;1.77;;;1.57;;
75737;SDS011;64356;45.638;13.764;2023-02-05T10:46:14;1.95;;;1.73;;
75737;SDS011;64356;45.638;13.764;2023-02-05T10:48:55;1.48;;;1.38;;
75737;SDS011;64356;45.638;13.764;2023-02-05T11:07:11;1.38;;;1.27;;
75737;SDS011;64356;45.638;13.764;2023-02-05T11:09:49;1.50;;;1.40;;
75737;SDS011;64356;45.638;13.764;2023-02-05T11:12:48;2.17;;;1.30;;
75737;SDS011;64356;45.638;13.764;2023-02-05T11:15:13;2.03;;;1.30;;
75737;SDS011;64356;45.638;13.764;2023-02-05T11:17:53;2.40;;;1.52;;
75737;SDS011;64356;45.638;13.764;2023-02-05T11:20:33;1.27;;;1.20;;
75737;SDS011;64356;45.638;13.764;2023-02-05T11:23:06;1.30;;;1.20;;
75737;SDS011;64356;45.638;13.764;2023-02-05T11:25:56;1.30;;;1.20;;
75737;SDS011;64356;45.638;13.764;2023-02-05T11:38:50;1.60;;;1.48;;
75737;SDS011;64356;45.638;13.764;2023-02-05T11:41:25;2.17;;;1.90;;
75737;SDS011;64356;45.638;13.764;2023-02-05T11:43:53;1.23;;;1.13;;
75737;SDS011;64356;45.638;13.764;2023-02-05T11:46:21;2.03;;;1.50;;
75737;SDS011;64356;45.638;13.764;2023-02-05T11:48:58;1.45;;;1.35;;
75737;SDS011;64356;45.638;13.764;2023-02-05T11:58:31;1.95;;;1.63;;
75737;SDS011;64356;45.638;13.764;2023-02-05T12:00:58;1.30;;;1.20;;
75737;SDS011;64356;45.638;13.764;2023-02-05T12:03:26;1.70;;;1.60;;
75737;SDS011;64356;45.638;13.764;2023-02-05T12:08:42;1.45;;;1.35;;
75737;SDS011;64356;45.638;13.764;2023-02-05T12:27:28;1.73;;;1.40;;
75737;SDS011;64356;45.638;13.764;2023-02-05T12:30:16;1.40;;;1.30;;
75737;SDS011;64356;45.638;13.764;2023-02-05T12:39:53;1.30;;;1.20;;
75737;SDS011;64356;45.638;13.764;2023-02-05T12:42:30;1.48;;;1.38;;
75737;SDS011;64356;45.638;13.764;2023-02-05T12:55:50;1.30;;;1.20;;
75737;SDS011;64356;45.638;13.764;2023-02-05T12:58:27;1.60;;;1.50;;
75737;SDS011;64356;45.638;13.764;2023-02-05T13:07:25;1.85;;;1.40;;
75737;SDS011;64356;45.638;13.764;2023-02-05T13:13:18;1.30;;;1.20;;
75737;SDS011;64356;45.638;13.764;2023-02-05T13:16:04;1.30;;;1.20;;
75737;SDS011;64356;45.638;13.764;2023-02-05T13:18:40;1.50;;;1.10;;
75737;SDS011;64356;45.638;13.764;2023-02-05T13:21:16;1.48;;;1.38;;
75737;SDS011;64356;45.638;13.764;2023-02-05T13:24:09;1.30;;;1.20;;
75737;SDS011;64356;45.638;13.764;2023-02-05T13:33:22;1.30;;;1.20;;
75737;SDS011;64356;45.638;13.764;2023-02-05T13:35:55;1.30;;;1.20;;
75737;SDS011;64356;45.638;13.764;2023-02-05T14:15:35;1.90;;;1.20;;
75737;SDS011;64356;45.638;13.764;2023-02-05T14:24:50;1.40;;;1.30;;
75737;SDS011;64356;45.638;13.764;2023-02-05T14:36:51;1.30;;;1.20;;
75737;SDS011;64356;45.638;13.764;2023-02-05T14:39:35;1.20;;;1.10;;
75737;SDS011;64356;45.638;13.764;2023-02-05T14:58:07;3.08;;;1.65;;
75737;SDS011;64356;45.638;13.764;2023-02-05T15:10:33;1.65;;;1.50;;
75737;SDS011;64356;45.638;13.764;2023-02-05T15:13:30;1.40;;;1.30;;
75737;SDS011;64356;45.638;13.764;2023-02-05T15:48:59;1.80;;;1.38;;
75737;SDS011;64356;45.638;13.764;2023-02-05T15:58:18;1.30;;;1.20;;
75737;SDS011;64356;45.638;13.764;2023-02-05T16:09:48;1.50;;;1.40;;
75737;SDS011;64356;45.638;13.764;2023-02-05T16:21:07;1.40;;;1.30;;
75737;SDS011;64356;45.638;13.764;2023-02-05T16:23:53;1.70;;;1.30;;
75737;SDS011;64356;45.638;13.764;2023-02-05T16:29:04;1.98;;;1.48;;
75737;SDS011;64356;45.638;13.764;2023-02-05T16:31:33;2.22;;;1.60;;
75737;SDS011;64356;45.638;13.764;2023-02-05T16:34:03;1.63;;;1.52;;
75737;SDS011;64356;45.638;13.764;2023-02-05T16:36:36;1.33;;;1.23;;
75737;SDS011;64356;45.638;13.764;2023-02-05T16:39:18;1.40;;;1.15;;
75737;SDS011;64356;45.638;13.764;2023-02-05T16:42:06;1.70;;;1.48;;
75737;SDS011;64356;45.638;13.764;2023-02-05T16:47:35;0.90;;;0.90;;
75737;SDS011;64356;45.638;13.764;2023-02-05T16:50:31;1.80;;;1.27;;
75737;SDS011;64356;45.638;13.764;2023-02-05T16:53:00;1.40;;;1.30;;
75737;SDS011;64356;45.638;13.764;2023-02-05T16:57:54;1.27;;;1.17;;
75737;SDS011;64356;45.638;13.764;2023-02-05T17:00:27;1.45;;;1.35;;
75737;SDS011;64356;45.638;13.764;2023-02-05T17:02:55;1.35;;;1.20;;
75737;SDS011;64356;45.638;13.764;2023-02-05T17:08:05;1.27;;;1.17;;
75737;SDS011;64356;45.638;13.764;2023-02-05T17:10:51;1.30;;;1.20;;
75737;SDS011;64356;45.638;13.764;2023-02-05T17:13:24;1.88;;;1.20;;
75737;SDS011;64356;45.638;13.764;2023-02-05T17:18:54;1.50;;;1.40;;
75737;SDS011;64356;45.638;13.764;2023-02-05T17:21:22;3.85;;;1.27;;
75737;SDS011;64356;45.638;13.764;2023-02-05T17:23:51;1.50;;;1.10;;
75737;SDS011;64356;45.638;13.764;2023-02-05T17:26:18;1.30;;;1.20;;
75737;SDS011;64356;45.638;13.764;2023-02-05T17:28:45;1.65;;;1.30;;
75737;SDS011;64356;45.638;13.764;2023-02-05T17:31:15;1.40;;;1.30;;
75737;SDS011;64356;45.638;13.764;2023-02-05T17:33:41;2.40;;;1.27;;
75737;SDS011;64356;45.638;13.764;2023-02-05T17:36:14;1.30;;;1.20;;
75737;SDS011;64356;45.638;13.764;2023-02-05T17:38:41;1.50;;;1.38;;
75737;SDS011;64356;45.638;13.764;2023-02-05T17:41:17;1.00;;;1.00;;
75737;SDS011;64356;45.638;13.764;2023-02-05T17:44:09;1.30;;;1.20;;
75737;SDS011;64356;45.638;13.764;2023-02-05T17:46:36;1.10;;;1.00;;
75737;SDS011;64356;45.638;13.764;2023-02-05T17:49:02;1.60;;;1.17;;
75737;SDS011;64356;45.638;13.764;2023-02-05T17:51:28;1.08;;;1.00;;
75737;SDS011;64356;45.638;13.764;2023-02-05T17:53:54;1.60;;;1.50;;
75737;SDS011;64356;45.638;13.764;2023-02-05T17:56:20;1.25;;;1.15;;
75737;SDS011;64356;45.638;13.764;2023-02-05T17:58:46;3.20;;;1.35;;
75737;SDS011;64356;45.638;13.764;2023-02-05T18:01:13;1.50;;;1.40;;
75737;SDS011;64356;45.638;13.764;2023-02-05T18:03:39;0.98;;;0.98;;
75737;SDS011;64356;45.638;13.764;2023-02-05T18:06:05;1.10;;;1.00;;
75737;SDS011;64356;45.638;13.764;2023-02-05T18:08:31;2.17;;;1.42;;
75737;SDS011;64356;45.638;13.764;2023-02-05T18:11:00;1.45;;;1.23;;
75737;SDS011;64356;45.638;13.764;2023-02-05T18:13:26;1.30;;;1.20;;
75737;SDS011;64356;45.638;13.764;2023-02-05T18:15:51;1.40;;;1.30;;
75737;SDS011;64356;45.638;13.764;2023-02-05T18:18:18;1.27;;;1.10;;
75737;SDS011;64356;45.638;13.764;2023-02-05T18:20:44;1.83;;;1.30;;
75737;SDS011;64356;45.638;13.764;2023-02-05T18:23:10;1.45;;;1.30;;
75737;SDS011;64356;45.638;13.764;2023-02-05T18:25:37;1.48;;;1.25;;
75737;SDS011;64356;45.638;13.764;2023-02-05T18:28:03;1.25;;;1.13;;
75737;SDS011;64356;45.638;13.764;2023-02-05T18:30:29;1.10;;;1.00;;
75737;SDS011;64356;45.638;13.764;2023-02-05T18:32:55;3.13;;;1.35;;
75737;SDS011;64356;45.638;13.764;2023-02-05T18:35:21;1.55;;;1.30;;
75737;SDS011;64356;45.638;13.764;2023-02-05T18:37:47;1.20;;;1.10;;
75737;SDS011;64356;45.638;13.764;2023-02-05T18:40:12;1.27;;;1.23;;
75737;SDS011;64356;45.638;13.764;2023-02-05T18:42:39;1.35;;;1.23;;
75737;SDS011;64356;45.638;13.764;2023-02-05T18:45:05;1.80;;;1.48;;
75737;SDS011;64356;45.638;13.764;2023-02-05T18:47:32;1.25;;;1.15;;
75737;SDS011;64356;45.638;13.764;2023-02-05T18:49:57;1.30;;;1.20;;
75737;SDS011;64356;45.638;13.764;2023-02-05T18:52:23;1.30;;;1.20;;
75737;SDS011;64356;45.638;13.764;2023-02-05T18:54:51;2.28;;;1.73;;
75737;SDS011;64356;45.638;13.764;2023-02-05T18:57:18;1.75;;;1.50;;
75737;SDS011;64356;45.638;13.764;2023-02-05T18:59:44;2.03;;;1.55;;
75737;SDS011;64356;45.638;13.764;2023-02-05T19:02:10;1.42;;;1.20;;
75737;SDS011;64356;45.638;13.764;2023-02-05T19:04:36;1.30;;;1.15;;
75737;SDS011;64356;45.638;13.764;2023-02-05T19:07:01;1.42;;;1.33;;
75737;SDS011;64356;45.638;13.764;2023-02-05T19:09:27;1.30;;;1.20;;
75737;SDS011;64356;45.638;13.764;2023-02-05T19:11:54;1.73;;;1.52;;
75737;SDS011;64356;45.638;13.764;2023-02-05T19:14:21;1.77;;;1.25;;
75737;SDS011;64356;45.638;13.764;2023-02-05T19:16:48;1.23;;;1.13;;
75737;SDS011;64356;45.638;13.764;2023-02-05T19:19:15;2.03;;;1.77;;
75737;SDS011;64356;45.638;13.764;2023-02-05T19:21:48;4.20;;;1.45;;
75737;SDS011;64356;45.638;13.764;2023-02-05T19:24:18;1.70;;;1.55;;
75737;SDS011;64356;45.638;13.764;2023-02-05T19:26:46;1.85;;;1.50;;
75737;SDS011;64356;45.638;13.764;2023-02-05T19:29:14;1.17;;;1.08;;
75737;SDS011;64356;45.638;13.764;2023-02-05T19:31:42;1.42;;;1.33;;
75737;SDS011;64356;45.638;13.764;2023-02-05T19:34:08;1.95;;;1.52;;
75737;SDS011;64356;45.638;13.764;2023-02-05T19:36:35;1.30;;;1.20;;
75737;SDS011;64356;45.638;13.764;2023-02-05T19:39:02;1.30;;;1.20;;
75737;SDS011;64356;45.638;13.764;2023-02-05T19:41:30;1.40;;;1.30;;
75737;SDS011;64356;45.638;13.764;2023-02-05T19:43:58;1.70;;;1.60;;
75737;SDS011;64356;45.638;13.764;2023-02-05T19:46:30;1.17;;;1.08;;
75737;SDS011;64356;45.638;13.764;2023-02-05T19:49:00;1.65;;;1.52;;